This is the latest recevied weather packets stored in our database for station/object F4AMY-13. If no packets are shown the sender has not sent any weather packets the latest 10 day(s).
| Time | Temp. | Humidity | Pressure | Rain* | Wind** | Luminosity | Snow |
|---|---|---|---|---|---|---|---|
| 1777810073 | 20.56° C | 43% | 1016.8 hPa | 0 mm | 52.75 m/s, ° | 118 W/m² | - |
| 1777809773 | 20.56° C | 46% | 1016.8 hPa | 0 mm | 48.28 m/s, ° | 108 W/m² | - |
| 1777809473 | 21.11° C | 44% | 1017.1 hPa | 0 mm | 46.94 m/s, ° | 105 W/m² | - |
| 1777809173 | 21.11° C | 44% | 1017.1 hPa | 0 mm | 58.56 m/s, ° | 131 W/m² | - |
| 1777808873 | 21.67° C | 43% | 1017.2 hPa | 0 mm | 60.8 m/s, ° | 136 W/m² | - |
| 1777808573 | 21.67° C | 44% | 1017.2 hPa | 0 mm | 57.67 m/s, ° | 129 W/m² | - |
| 1777808273 | 21.67° C | 43% | 1017.3 hPa | 0 mm | 53.2 m/s, ° | 119 W/m² | - |
| 1777807973 | 21.67° C | 42% | 1017.3 hPa | 0 mm | 54.09 m/s, ° | 121 W/m² | - |
| 1777807673 | 21.67° C | 41% | 1017.1 hPa | 0 mm | 105.5 m/s, ° | 236 W/m² | - |
| 1777807373 | 21.67° C | 46% | 1017.2 hPa | 0 mm | 59.9 m/s, ° | 134 W/m² | - |
| 1777807073 | 21.67° C | 46% | 1017.2 hPa | 0 mm | 59.9 m/s, ° | 134 W/m² | - |
| 1777806773 | 21.11° C | 50% | 1017.1 hPa | 0 mm | 125.62 m/s, ° | 281 W/m² | - |
| 1777806473 | 21.11° C | 48% | 1016.9 hPa | 0 mm | 73.31 m/s, ° | 164 W/m² | - |
| 1777806172 | 20.56° C | 44% | 1017 hPa | 0 mm | 62.14 m/s, ° | 139 W/m² | - |
| 1777805872 | 20.56° C | 49% | 1017.3 hPa | 0 mm | 90.3 m/s, ° | 202 W/m² | - |
| 1777805572 | 20° C | 47% | 1017.2 hPa | 0 mm | 73.31 m/s, ° | 164 W/m² | - |
| 1777805272 | 20° C | 51% | 1017.3 hPa | 0 mm | 77.34 m/s, ° | 173 W/m² | - |
| 1777804972 | 19.44° C | 48% | 1017.5 hPa | 0 mm | 77.78 m/s, ° | 174 W/m² | - |
| 1777804672 | 19.44° C | 50% | 1017.5 hPa | 0 mm | 60.35 m/s, ° | 135 W/m² | - |
| 1777804372 | 19.44° C | 51% | 1017.4 hPa | 0 mm | 45.6 m/s, ° | 102 W/m² | - |
| 1777804072 | 19.44° C | 52% | 1017.3 hPa | 0 mm | 55.43 m/s, ° | 124 W/m² | - |
| 1777803772 | 19.44° C | 53% | 1017.5 hPa | 0 mm | 58.56 m/s, ° | 131 W/m² | - |
| 1777803472 | 19.44° C | 54% | 1017.2 hPa | 0 mm | 44.26 m/s, ° | 99 W/m² | - |
| 1777803172 | 19.44° C | 55% | 1017.1 hPa | 0 mm | 42.47 m/s, ° | 95 W/m² | - |
| 1777802872 | 19.44° C | 56% | 1017.3 hPa | 0 mm | 40.23 m/s, ° | 90 W/m² | - |
* Rain latest hour (hover to see other rain measurements)
** Current wind speed in m/s (hover to see current wind gust speed)